Time;durP1;ratioP1;P1;durP2;ratioP2;P2;SDS_P1;SDS_P2;PMS_P1;PMS_P2;Temp;Humidity;BMP_temperature;BMP_pressure;BME280_temperature;BME280_humidity;BME280_pressure;Samples;Min_cycle;Max_cycle;Signal;HPM_P1;HPM_P2
2023/05/23 00:01:48;;;;;;;;;;;;;;;;;;5109664;28;20002;-61
2023/05/23 00:04:17;;;;;;;;;;;;;;;;;;5102887;28;19965;-61
2023/05/23 00:06:45;;;;;;;;;;;;;;;;;;5115178;28;20339;-61
2023/05/23 00:09:11;;;;;;;;;;;;;;;;;;5113406;28;19923;-61
2023/05/23 00:11:37;;;;;;;;;;;;;;;;;;5107777;28;19942;-61
2023/05/23 00:14:03;;;;;;;;;;;;;;;;;;5105964;28;19919;-61
2023/05/23 00:16:29;;;;;;;;;;;;;;;;;;5107662;28;19932;-61
2023/05/23 00:18:57;;;;;;;;;;;;;;;;;;5112869;28;19923;-60
2023/05/23 00:21:23;;;;;;;;;;;;;;;;;;5101939;28;19985;-61
2023/05/23 00:23:49;;;;;;;;;;;;;;;;;;5110163;28;19927;-60
2023/05/23 00:26:15;;;;;;;;;;;;;;;;;;5112866;28;19967;-60
2023/05/23 00:28:41;;;;;;;;;;;;;;;;;;5114774;28;19924;-60
2023/05/23 00:31:07;;;;;;;;;;;;;;;;;;5112554;28;20010;-60
2023/05/23 00:33:33;;;;;;;;;;;;;;;;;;5113512;28;19920;-60
2023/05/23 00:35:59;;;;;;;;;;;;;;;;;;5095983;28;19998;-61
2023/05/23 00:38:25;;;;;;;;;;;;;;;;;;5113461;28;19924;-61
2023/05/23 00:40:51;;;;;;;;;;;;;;;;;;5110506;28;19920;-60
2023/05/23 00:43:19;;;;;;;;;;;;;;;;;;5112763;28;19920;-60
2023/05/23 00:45:45;;;;;;;;;;;;;;;;;;5111516;28;19966;-60
2023/05/23 00:48:11;;;;;;;;;;;;;;;;;;5114017;28;19924;-60
2023/05/23 00:50:37;;;;;;;;;;;;;;;;;;5110623;27;19998;-59
2023/05/23 00:53:03;;;;;;;;;;;;;;;;;;5098599;28;19999;-59
2023/05/23 00:55:29;;;;;;;;;;;;;;;;;;5110806;28;19924;-59
2023/05/23 00:57:56;;;;;;;;;;;;;;;;;;5112428;28;20582;-60
2023/05/23 01:00:22;;;;;;;;;;;;;;;;;;5106265;28;19920;-59
2023/05/23 01:02:50;;;;;;;;;;;;;;;;;;5108122;28;19972;-59
2023/05/23 01:05:21;;;;;;;;;;;;;;;;;;5108739;28;20425;-59
2023/05/23 01:07:47;;;;;;;;;;;;;;;;;;5112985;28;19920;-59
2023/05/23 01:10:13;;;;;;;;;;;;;;;;;;5113167;28;20648;-60
2023/05/23 01:12:38;;;;;;;;;;;;;;;;;;5112261;28;20010;-60
2023/05/23 01:15:05;;;;;;;;;;;;;;;;;;5109195;28;20420;-60
2023/05/23 01:17:31;;;;;;;;;;;;;;;;;;5110432;28;19928;-60
2023/05/23 01:19:57;;;;;;;;;;;;;;;;;;5108816;28;19980;-60
2023/05/23 01:22:23;;;;;;;;;;;;;;;;;;5107939;28;20954;-60
2023/05/23 01:24:48;;;;;;;;;;;;;;;;;;5105259;28;19924;-60
2023/05/23 01:27:14;;;;;;;;;;;;;;;;;;5094586;28;19952;-61
2023/05/23 01:29:40;;;;;;;;;;;;;;;;;;5110496;28;19924;-59
2023/05/23 01:32:06;;;;;;;;;;;;;;;;;;5111222;28;19973;-60
2023/05/23 01:34:32;;;;;;;;;;;;;;;;;;5110859;28;19955;-60
2023/05/23 01:36:58;;;;;;;;;;;;;;;;;;5112167;28;20322;-60
2023/05/23 01:39:24;;;;;;;;;;;;;;;;;;5110054;28;20004;-60
2023/05/23 01:41:50;;;;;;;;;;;;;;;;;;5110242;28;20020;-60
2023/05/23 01:44:16;;;;;;;;;;;;;;;;;;5092854;28;19920;-60
2023/05/23 01:46:43;;;;;;;;;;;;;;;;;;5108369;28;20303;-60
2023/05/23 01:49:09;;;;;;;;;;;;;;;;;;5110548;28;20288;-60
2023/05/23 01:51:35;;;;;;;;;;;;;;;;;;5103952;28;19920;-60
2023/05/23 01:54:01;;;;;;;;;;;;;;;;;;5124610;27;19927;-60
2023/05/23 01:56:27;;;;;;;;;;;;;;;;;;5111020;28;19936;-60
2023/05/23 01:58:53;;;;;;;;;;;;;;;;;;5112449;28;19920;-60
2023/05/23 02:01:19;;;;;;;;;;;;;;;;;;5108766;28;20467;-60
2023/05/23 02:03:45;;;;;;;;;;;;;;;;;;5095888;28;19924;-60
2023/05/23 02:06:11;;;;;;;;;;;;;;;;;;5106221;28;19959;-60
2023/05/23 02:08:37;;;;;;;;;;;;;;;;;;5104921;28;19927;-60
2023/05/23 02:11:03;;;;;;;;;;;;;;;;;;5109619;28;20003;-60
2023/05/23 02:13:28;;;;;;;;;;;;;;;;;;5110451;28;19928;-60
2023/05/23 02:15:54;;;;;;;;;;;;;;;;;;5111399;28;19962;-61
2023/05/23 02:18:20;;;;;;;;;;;;;;;;;;5111536;28;19942;-61
2023/05/23 02:20:46;;;;;;;;;;;;;;;;;;5109194;28;19931;-61
2023/05/23 02:23:12;;;;;;;;;;;;;;;;;;5100587;28;19963;-61
2023/05/23 02:25:38;;;;;;;;;;;;;;;;;;5110592;28;20330;-61
2023/05/23 02:28:04;;;;;;;;;;;;;;;;;;5093453;28;19944;-59
2023/05/23 02:30:30;;;;;;;;;;;;;;;;;;5104435;28;19920;-60
2023/05/23 02:32:57;;;;;;;;;;;;;;;;;;5100542;28;19998;-60
2023/05/23 02:35:23;;;;;;;;;;;;;;;;;;5112561;28;19920;-60
2023/05/23 02:37:48;;;;;;;;;;;;;;;;;;5110898;28;19932;-60
2023/05/23 02:40:14;;;;;;;;;;;;;;;;;;5112053;28;19935;-60
2023/05/23 02:42:41;;;;;;;;;;;;;;;;;;5109880;28;20365;-61
2023/05/23 02:45:06;;;;;;;;;;;;;;;;;;5111231;28;20403;-63
2023/05/23 02:47:32;;;;;;;;;;;;;;;;;;5110642;28;19959;-61
2023/05/23 02:49:58;;;;;;;;;;;;;;;;;;5092354;28;19930;-61
2023/05/23 02:52:24;;;;;;;;;;;;;;;;;;5091476;28;20374;-61
2023/05/23 02:54:50;;;;;;;;;;;;;;;;;;5108329;28;19926;-62
2023/05/23 02:57:16;;;;;;;;;;;;;;;;;;5108707;28;19934;-61
2023/05/23 02:59:42;;;;;;;;;;;;;;;;;;5109489;28;20422;-61
2023/05/23 03:02:08;;;;;;;;;;;;;;;;;;5101442;28;19928;-61
2023/05/23 03:04:34;;;;;;;;;;;;;;;;;;5109051;28;19919;-61
2023/05/23 03:07:02;;;;;;;;;;;;;;;;;;5109003;28;19923;-61
2023/05/23 03:09:28;;;;;;;;;;;;;;;;;;5104589;28;19953;-60
2023/05/23 03:11:54;;;;;;;;;;;;;;;;;;5109584;28;19923;-59
2023/05/23 03:14:19;;;;;;;;;;;;;;;;;;5110284;28;20743;-60
2023/05/23 03:16:45;;;;;;;;;;;;;;;;;;5108387;28;20391;-62
2023/05/23 03:19:11;;;;;;;;;;;;;;;;;;5109840;28;20265;-60
2023/05/23 03:21:37;;;;;;;;;;;;;;;;;;5110082;28;19997;-60
2023/05/23 03:24:03;;;;;;;;;;;;;;;;;;5109600;28;19966;-60
2023/05/23 03:26:29;;;;;;;;;;;;;;;;;;5101609;28;19930;-60
2023/05/23 03:28:55;;;;;;;;;;;;;;;;;;5100168;28;19969;-60
2023/05/23 03:31:21;;;;;;;;;;;;;;;;;;5107725;28;19927;-60
2023/05/23 03:33:47;;;;;;;;;;;;;;;;;;5102844;28;19920;-60
2023/05/23 03:36:13;;;;;;;;;;;;;;;;;;5096214;28;19968;-60
2023/05/23 03:38:39;;;;;;;;;;;;;;;;;;5102403;28;20670;-60
2023/05/23 03:41:05;;;;;;;;;;;;;;;;;;5109236;28;20019;-60
2023/05/23 03:43:31;;;;;;;;;;;;;;;;;;5108230;28;19924;-60
2023/05/23 03:45:57;;;;;;;;;;;;;;;;;;5108335;28;19920;-60
2023/05/23 03:48:23;;;;;;;;;;;;;;;;;;5093638;28;19990;-61
2023/05/23 03:50:48;;;;;;;;;;;;;;;;;;5092605;28;19972;-60
2023/05/23 03:53:14;;;;;;;;;;;;;;;;;;5108790;28;19923;-60
2023/05/23 03:55:40;;;;;;;;;;;;;;;;;;5111492;28;19920;-60
2023/05/23 03:58:06;;;;;;;;;;;;;;;;;;5111552;28;19928;-61
2023/05/23 04:00:32;;;;;;;;;;;;;;;;;;5110232;28;19923;-60
2023/05/23 04:02:58;;;;;;;;;;;;;;;;;;5110460;28;20006;-60
2023/05/23 04:05:24;;;;;;;;;;;;;;;;;;5110221;28;19924;-60
2023/05/23 04:07:50;;;;;;;;;;;;;;;;;;5110429;28;19930;-60
2023/05/23 04:10:17;;;;;;;;;;;;;;;;;;5114518;28;19919;-60
2023/05/23 04:12:43;;;;;;;;;;;;;;;;;;5114776;28;19959;-61
2023/05/23 04:15:08;;;;;;;;;;;;;;;;;;5114331;28;20419;-60
2023/05/23 04:17:37;;;;;;;;;;;;;;;;;;5108337;28;19973;-61
2023/05/23 04:20:04;;;;;;;;;;;;;;;;;;5123979;22;19942;-63
2023/05/23 04:22:30;;;;;;;;;;;;;;;;;;5072898;28;19925;-64
2023/05/23 04:24:56;;;;;;;;;;;;;;;;;;5073799;28;19927;-64
2023/05/23 04:27:24;;;;;;;;;;;;;;;;;;5065461;28;19924;-64
2023/05/23 04:29:51;;;;;;;;;;;;;;;;;;5072987;28;19990;-64
2023/05/23 04:32:18;;;;;;;;;;;;;;;;;;5073404;28;19924;-64
2023/05/23 04:34:44;;;;;;;;;;;;;;;;;;5072634;28;20378;-64
2023/05/23 04:37:10;;;;;;;;;;;;;;;;;;5073606;28;19936;-64
2023/05/23 04:39:37;;;;;;;;;;;;;;;;;;5071965;28;19921;-64
2023/05/23 04:42:03;;;;;;;;;;;;;;;;;;5054409;28;20593;-63
2023/05/23 04:44:29;;;;;;;;;;;;;;;;;;5070975;28;19933;-64
2023/05/23 04:46:55;;;;;;;;;;;;;;;;;;5073986;28;19921;-64
2023/05/23 04:49:21;;;;;;;;;;;;;;;;;;5074181;28;19965;-65
2023/05/23 04:51:47;;;;;;;;;;;;;;;;;;5071929;28;19924;-64
2023/05/23 04:54:13;;;;;;;;;;;;;;;;;;5072868;28;19927;-64
2023/05/23 04:56:39;;;;;;;;;;;;;;;;;;5069852;28;19931;-64
2023/05/23 04:59:07;;;;;;;;;;;;;;;;;;5073665;28;20405;-64
2023/05/23 05:01:33;;;;;;;;;;;;;;;;;;5054365;28;19927;-65
2023/05/23 05:03:59;;;;;;;;;;;;;;;;;;5055493;28;19924;-65
2023/05/23 05:06:26;;;;;;;;;;;;;;;;;;5073688;28;19924;-64
2023/05/23 05:08:52;;;;;;;;;;;;;;;;;;5072673;28;19935;-64
2023/05/23 05:11:18;;;;;;;;;;;;;;;;;;5070177;28;19928;-64
2023/05/23 05:13:44;;;;;;;;;;;;;;;;;;5070287;28;19924;-64
2023/05/23 05:16:10;;;;;;;;;;;;;;;;;;5050382;28;19994;-64
2023/05/23 05:18:36;;;;;;;;;;;;;;;;;;5070803;28;19920;-65
2023/05/23 05:21:02;;;;;;;;;;;;;;;;;;5068949;28;19931;-64
2023/05/23 05:23:29;;;;;;;;;;;;;;;;;;5070952;28;19943;-64
2023/05/23 05:25:55;;;;;;;;;;;;;;;;;;5070348;28;19924;-64
2023/05/23 05:28:21;;;;;;;;;;;;;;;;;;5071143;28;20381;-64
2023/05/23 05:30:47;;;;;;;;;;;;;;;;;;5068784;28;19925;-64
2023/05/23 05:33:13;;;;;;;;;;;;;;;;;;5069300;28;20409;-64
2023/05/23 05:35:39;;;;;;;;;;;;;;;;;;5044267;28;19956;-64
2023/05/23 05:38:04;;;;;;;;;;;;;;;;;;5067789;28;19925;-64
2023/05/23 05:40:30;;;;;;;;;;;;;;;;;;5069418;28;19966;-64
2023/05/23 05:42:56;;;;;;;;;;;;;;;;;;5068722;28;19928;-64
2023/05/23 05:45:22;;;;;;;;;;;;;;;;;;5063290;28;19974;-64
2023/05/23 05:47:48;;;;;;;;;;;;;;;;;;5070715;28;19924;-64
2023/05/23 05:50:14;;;;;;;;;;;;;;;;;;5071403;28;19931;-64
2023/05/23 05:52:41;;;;;;;;;;;;;;;;;;5053734;28;19924;-64
2023/05/23 05:55:07;;;;;;;;;;;;;;;;;;5058038;28;20298;-64
2023/05/23 05:57:32;;;;;;;;;;;;;;;;;;5071030;28;19924;-63
2023/05/23 05:59:58;;;;;;;;;;;;;;;;;;5071556;28;20376;-64
2023/05/23 06:02:25;;;;;;;;;;;;;;;;;;5068504;28;19946;-64
2023/05/23 06:04:51;;;;;;;;;;;;;;;;;;5071168;28;20282;-64
2023/05/23 06:07:17;;;;;;;;;;;;;;;;;;5069825;28;19924;-65
2023/05/23 06:09:43;;;;;;;;;;;;;;;;;;5070148;28;19947;-64
2023/05/23 06:12:09;;;;;;;;;;;;;;;;;;5069312;28;19920;-64
2023/05/23 06:14:35;;;;;;;;;;;;;;;;;;5071187;28;19928;-64
2023/05/23 06:17:01;;;;;;;;;;;;;;;;;;5072844;28;19931;-64
2023/05/23 06:19:27;;;;;;;;;;;;;;;;;;5051962;28;19967;-64
2023/05/23 06:21:53;;;;;;;;;;;;;;;;;;5068025;28;19925;-64
2023/05/23 06:24:19;;;;;;;;;;;;;;;;;;5065835;28;20376;-65
2023/05/23 06:26:45;;;;;;;;;;;;;;;;;;5069527;28;19920;-65
2023/05/23 06:29:11;;;;;;;;;;;;;;;;;;5051671;28;19924;-65
2023/05/23 06:31:37;;;;;;;;;;;;;;;;;;5063982;28;20476;-64
2023/05/23 06:34:03;;;;;;;;;;;;;;;;;;5066503;28;19928;-64
2023/05/23 06:36:30;;;;;;;;;;;;;;;;;;5041875;28;19924;-63
2023/05/23 06:38:56;;;;;;;;;;;;;;;;;;5070910;28;19970;-64
2023/05/23 06:41:22;;;;;;;;;;;;;;;;;;5064236;28;19920;-64
2023/05/23 06:43:48;;;;;;;;;;;;;;;;;;5069192;28;19924;-63
2023/05/23 06:46:14;;;;;;;;;;;;;;;;;;5066827;28;19955;-64
2023/05/23 06:48:40;;;;;;;;;;;;;;;;;;5068317;28;20400;-64
2023/05/23 06:51:06;;;;;;;;;;;;;;;;;;5071453;28;20015;-64
2023/05/23 06:53:32;;;;;;;;;;;;;;;;;;5070414;28;20007;-64
2023/05/23 06:55:58;;;;;;;;;;;;;;;;;;5069335;28;19986;-64
2023/05/23 06:58:25;;;;;;;;;;;;;;;;;;5067353;28;19924;-64
2023/05/23 07:00:51;;;;;;;;;;;;;;;;;;5068877;28;20500;-64
2023/05/23 07:03:17;;;;;;;;;;;;;;;;;;5068140;28;19925;-64
2023/05/23 07:05:43;;;;;;;;;;;;;;;;;;5072799;28;19920;-64
2023/05/23 07:08:12;;;;;;;;;;;;;;;;;;5062536;28;19920;-64
2023/05/23 07:10:40;;;;;;;;;;;;;;;;;;5071497;28;19921;-64
2023/05/23 07:13:06;;;;;;;;;;;;;;;;;;5067285;28;20007;-63
2023/05/23 07:15:31;;;;;;;;;;;;;;;;;;5065265;28;20142;-64
2023/05/23 07:17:57;;;;;;;;;;;;;;;;;;5069618;28;19931;-64
2023/05/23 07:20:23;;;;;;;;;;;;;;;;;;5072349;28;19932;-64
2023/05/23 07:22:50;;;;;;;;;;;;;;;;;;5067046;28;20674;-64
2023/05/23 07:25:16;;;;;;;;;;;;;;;;;;5070131;28;19920;-64
2023/05/23 07:27:42;;;;;;;;;;;;;;;;;;5059094;28;19929;-64
2023/05/23 07:30:08;;;;;;;;;;;;;;;;;;5062135;28;20674;-64
2023/05/23 07:32:34;;;;;;;;;;;;;;;;;;5061527;28;19920;-64
2023/05/23 07:35:00;;;;;;;;;;;;;;;;;;5064365;28;19928;-64
2023/05/23 07:37:26;;;;;;;;;;;;;;;;;;5069732;28;20362;-64
2023/05/23 07:39:52;;;;;;;;;;;;;;;;;;5070427;28;19971;-65
2023/05/23 07:42:18;;;;;;;;;;;;;;;;;;5071004;28;20031;-64
2023/05/23 07:44:44;;;;;;;;;;;;;;;;;;5055450;28;19921;-63
2023/05/23 07:47:10;;;;;;;;;;;;;;;;;;5068568;28;20011;-63
2023/05/23 07:49:36;;;;;;;;;;;;;;;;;;5070806;28;20019;-64
2023/05/23 07:52:01;;;;;;;;;;;;;;;;;;5074509;28;20269;-64
2023/05/23 07:54:27;;;;;;;;;;;;;;;;;;5075071;28;19927;-64
2023/05/23 07:56:53;;;;;;;;;;;;;;;;;;5074874;28;19928;-64
2023/05/23 07:59:19;;;;;;;;;;;;;;;;;;5074515;28;20341;-64
2023/05/23 08:01:45;;;;;;;;;;;;;;;;;;5074786;28;19920;-64
2023/05/23 08:04:11;;;;;;;;;;;;;;;;;;5074186;28;19924;-63
2023/05/23 08:06:37;;;;;;;;;;;;;;;;;;5074476;28;19920;-64
2023/05/23 08:09:05;;;;;;;;;;;;;;;;;;5069471;28;19961;-63
2023/05/23 08:11:31;;;;;;;;;;;;;;;;;;5071955;28;19933;-63
2023/05/23 08:13:58;;;;;;;;;;;;;;;;;;5074145;28;20009;-63
2023/05/23 08:16:26;;;;;;;;;;;;;;;;;;5072128;28;19974;-63
2023/05/23 08:18:52;;;;;;;;;;;;;;;;;;5074127;28;19921;-63
2023/05/23 08:21:18;;;;;;;;;;;;;;;;;;5073543;28;19929;-62
2023/05/23 08:23:44;;;;;;;;;;;;;;;;;;5071749;28;19924;-63
2023/05/23 08:26:10;;;;;;;;;;;;;;;;;;5073988;28;19920;-63
2023/05/23 08:28:36;;;;;;;;;;;;;;;;;;5073987;28;19967;-63
2023/05/23 08:31:02;;;;;;;;;;;;;;;;;;5073940;28;20405;-63
2023/05/23 08:33:28;;;;;;;;;;;;;;;;;;5074239;28;20362;-63
2023/05/23 08:35:54;;;;;;;;;;;;;;;;;;5074298;28;19928;-64
2023/05/23 08:38:20;;;;;;;;;;;;;;;;;;5073535;28;19929;-63
2023/05/23 08:40:46;;;;;;;;;;;;;;;;;;5054054;28;20286;-63
2023/05/23 08:43:12;;;;;;;;;;;;;;;;;;5073414;28;19927;-63
2023/05/23 08:45:38;;;;;;;;;;;;;;;;;;5073198;28;19929;-63
2023/05/23 08:48:04;;;;;;;;;;;;;;;;;;5054347;28;19928;-63
2023/05/23 08:50:30;;;;;;;;;;;;;;;;;;5071102;28;19921;-63
2023/05/23 08:52:56;;;;;;;;;;;;;;;;;;5075680;28;19928;-63
2023/05/23 08:55:22;;;;;;;;;;;;;;;;;;5074776;28;19924;-63
2023/05/23 08:57:48;;;;;;;;;;;;;;;;;;5073270;28;20262;-63
2023/05/23 09:00:15;;;;;;;;;;;;;;;;;;5073034;28;20003;-63
2023/05/23 09:02:41;;;;;;;;;;;;;;;;;;5072752;28;20382;-63
2023/05/23 09:05:08;;;;;;;;;;;;;;;;;;5071784;28;19974;-63
2023/05/23 09:07:34;;;;;;;;;;;;;;;;;;5072382;28;20258;-63
2023/05/23 09:10:00;;;;;;;;;;;;;;;;;;5072938;28;19927;-63
2023/05/23 09:12:26;;;;;;;;;;;;;;;;;;5071047;28;19921;-63
2023/05/23 09:14:51;;;;;;;;;;;;;;;;;;5072062;28;20366;-63
2023/05/23 09:17:17;;;;;;;;;;;;;;;;;;5053850;28;19982;-64
2023/05/23 09:19:45;;;;;;;;;;;;;;;;;;5074815;28;20385;-63
2023/05/23 09:22:11;;;;;;;;;;;;;;;;;;5081927;28;19954;-64
2023/05/23 09:24:37;;;;;;;;;;;;;;;;;;5084498;28;19921;-64
2023/05/23 09:27:02;;;;;;;;;;;;;;;;;;5072749;28;19920;-64
2023/05/23 09:29:28;;;;;;;;;;;;;;;;;;5066538;28;20328;-63
2023/05/23 09:31:54;;;;;;;;;;;;;;;;;;5079581;28;20028;-63
2023/05/23 09:34:20;;;;;;;;;;;;;;;;;;5066581;28;19921;-63
2023/05/23 09:36:46;;;;;;;;;;;;;;;;;;5064817;28;19929;-64
2023/05/23 09:39:12;;;;;;;;;;;;;;;;;;5053685;28;20585;-63
2023/05/23 09:41:38;;;;;;;;;;;;;;;;;;5065623;28;19924;-63
2023/05/23 09:44:04;;;;;;;;;;;;;;;;;;5068944;28;19956;-63
2023/05/23 09:46:30;;;;;;;;;;;;;;;;;;5054976;28;20349;-63
2023/05/23 09:48:56;;;;;;;;;;;;;;;;;;5066856;28;19924;-63
2023/05/23 09:51:22;;;;;;;;;;;;;;;;;;5069134;28;20374;-64
2023/05/23 09:53:48;;;;;;;;;;;;;;;;;;5075306;28;20007;-63
2023/05/23 09:56:16;;;;;;;;;;;;;;;;;;5061720;28;21370;-63
2023/05/23 09:58:42;;;;;;;;;;;;;;;;;;5067354;28;19929;-64
2023/05/23 10:01:07;;;;;;;;;;;;;;;;;;5067890;28;19921;-64
2023/05/23 10:03:34;;;;;;;;;;;;;;;;;;5072277;28;20466;-63
2023/05/23 10:06:03;;;;;;;;;;;;;;;;;;5071460;28;20042;-64
2023/05/23 10:08:30;;;;;;;;;;;;;;;;;;5072905;28;19920;-64
2023/05/23 10:10:55;;;;;;;;;;;;;;;;;;5070361;28;19921;-64
2023/05/23 10:13:21;;;;;;;;;;;;;;;;;;5071484;28;19931;-64
2023/05/23 10:15:47;;;;;;;;;;;;;;;;;;5067952;28;19927;-64
2023/05/23 10:18:13;;;;;;;;;;;;;;;;;;5069658;28;20630;-64
2023/05/23 10:20:39;;;;;;;;;;;;;;;;;;5045535;28;19978;-66
2023/05/23 10:23:05;;;;;;;;;;;;;;;;;;5067545;28;20011;-66
2023/05/23 10:25:31;;;;;;;;;;;;;;;;;;5069282;28;19978;-64
2023/05/23 10:27:57;;;;;;;;;;;;;;;;;;5073525;28;19931;-65
2023/05/23 10:30:23;;;;;;;;;;;;;;;;;;5069763;28;19927;-64
2023/05/23 10:32:49;;;;;;;;;;;;;;;;;;5067038;28;19967;-64
2023/05/23 10:35:15;;;;;;;;;;;;;;;;;;5044683;28;19928;-64
2023/05/23 10:37:41;;;;;;;;;;;;;;;;;;5070588;28;19932;-64
2023/05/23 10:40:07;;;;;;;;;;;;;;;;;;5070522;28;19920;-63
2023/05/23 10:42:33;;;;;;;;;;;;;;;;;;5069371;28;19925;-65
2023/05/23 10:44:59;;;;;;;;;;;;;;;;;;5069933;28;19947;-65
2023/05/23 10:47:25;;;;;;;;;;;;;;;;;;5068095;28;20350;-65
2023/05/23 10:49:53;;;;;;;;;;;;;;;;;;5064701;28;20603;-65
2023/05/23 10:52:20;;;;;;;;;;;;;;;;;;5067770;28;19959;-65
2023/05/23 10:54:45;;;;;;;;;;;;;;;;;;5067248;28;19924;-64
2023/05/23 10:57:11;;;;;;;;;;;;;;;;;;5072114;28;19955;-64
2023/05/23 10:59:37;;;;;;;;;;;;;;;;;;5068603;28;19995;-64
2023/05/23 11:02:03;;;;;;;;;;;;;;;;;;5047814;28;19973;-64
2023/05/23 11:04:29;;;;;;;;;;;;;;;;;;5068794;28;19921;-61
2023/05/23 11:06:55;;;;;;;;;;;;;;;;;;5077065;28;19931;-61
2023/05/23 11:09:21;;;;;;;;;;;;;;;;;;5066922;28;19936;-61
2023/05/23 11:11:47;;;;;;;;;;;;;;;;;;5069334;28;20376;-60
2023/05/23 11:14:13;;;;;;;;;;;;;;;;;;5066285;28;19931;-61
2023/05/23 11:16:39;;;;;;;;;;;;;;;;;;5068546;28;19924;-63
2023/05/23 11:19:05;;;;;;;;;;;;;;;;;;5066454;28;19945;-62
2023/05/23 11:21:31;;;;;;;;;;;;;;;;;;5070099;28;20362;-62
2023/05/23 11:23:57;;;;;;;;;;;;;;;;;;5074936;28;19928;-62
2023/05/23 11:26:23;;;;;;;;;;;;;;;;;;5073125;28;19929;-62
2023/05/23 11:28:49;;;;;;;;;;;;;;;;;;5078599;28;19935;-61
2023/05/23 11:31:15;;;;;;;;;;;;;;;;;;5070807;28;19924;-61
2023/05/23 11:33:41;;;;;;;;;;;;;;;;;;5076026;28;19924;-61
2023/05/23 11:36:07;;;;;;;;;;;;;;;;;;5049903;28;19943;-61
2023/05/23 11:38:33;;;;;;;;;;;;;;;;;;5074049;28;19925;-61
2023/05/23 11:40:59;;;;;;;;;;;;;;;;;;5056840;28;20374;-61
2023/05/23 11:43:24;;;;;;;;;;;;;;;;;;5072935;28;19975;-61
2023/05/23 11:45:50;;;;;;;;;;;;;;;;;;5066396;28;20285;-61
2023/05/23 11:48:16;;;;;;;;;;;;;;;;;;5074954;28;19928;-62
2023/05/23 11:50:42;;;;;;;;;;;;;;;;;;5074019;28;19920;-61
2023/05/23 11:53:08;;;;;;;;;;;;;;;;;;5057540;28;19921;-62
2023/05/23 11:55:34;;;;;;;;;;;;;;;;;;5073516;28;20003;-62
2023/05/23 11:58:00;;;;;;;;;;;;;;;;;;5043810;28;20370;-62
2023/05/23 12:00:26;;;;;;;;;;;;;;;;;;5064471;28;19927;-62
2023/05/23 12:02:52;;;;;;;;;;;;;;;;;;5074512;28;19924;-62
2023/05/23 12:05:18;;;;;;;;;;;;;;;;;;5078358;28;19920;-62
2023/05/23 12:07:44;;;;;;;;;;;;;;;;;;5070525;28;19927;-61
2023/05/23 12:10:10;;;;;;;;;;;;;;;;;;5079074;28;19920;-61
2023/05/23 12:12:36;;;;;;;;;;;;;;;;;;5075168;28;19920;-61
2023/05/23 12:15:02;;;;;;;;;;;;;;;;;;5073093;28;19924;-61
2023/05/23 12:17:28;;;;;;;;;;;;;;;;;;5072784;28;19932;-61
2023/05/23 12:19:53;;;;;;;;;;;;;;;;;;5071295;28;19968;-61
2023/05/23 12:22:19;;;;;;;;;;;;;;;;;;5066298;28;20328;-61
2023/05/23 12:24:46;;;;;;;;;;;;;;;;;;5053304;28;19974;-61
2023/05/23 12:27:12;;;;;;;;;;;;;;;;;;5071396;28;19928;-62
2023/05/23 12:29:38;;;;;;;;;;;;;;;;;;5074177;28;19928;-61
2023/05/23 12:32:04;;;;;;;;;;;;;;;;;;5071698;28;19964;-62
2023/05/23 12:34:30;;;;;;;;;;;;;;;;;;5072135;28;20254;-61
2023/05/23 12:36:56;;;;;;;;;;;;;;;;;;5068259;28;20421;-61
2023/05/23 12:39:22;;;;;;;;;;;;;;;;;;5068191;28;19976;-61
2023/05/23 12:41:48;;;;;;;;;;;;;;;;;;5069280;28;19955;-62
2023/05/23 12:44:13;;;;;;;;;;;;;;;;;;5067060;28;20441;-63
2023/05/23 12:46:40;;;;;;;;;;;;;;;;;;5074181;28;19994;-62
2023/05/23 12:49:05;;;;;;;;;;;;;;;;;;5070112;28;19959;-62
2023/05/23 12:51:31;;;;;;;;;;;;;;;;;;5069220;28;19979;-62
2023/05/23 12:53:57;;;;;;;;;;;;;;;;;;5054120;28;19928;-62
2023/05/23 12:56:23;;;;;;;;;;;;;;;;;;5082755;28;20325;-62
2023/05/23 12:58:50;;;;;;;;;;;;;;;;;;5071463;28;19967;-61
2023/05/23 13:01:16;;;;;;;;;;;;;;;;;;5046436;28;19920;-61
2023/05/23 13:03:42;;;;;;;;;;;;;;;;;;5067723;28;19932;-61
2023/05/23 13:06:08;;;;;;;;;;;;;;;;;;5072268;28;19920;-61
2023/05/23 13:08:34;;;;;;;;;;;;;;;;;;5072131;28;19964;-61
2023/05/23 13:10:59;;;;;;;;;;;;;;;;;;5072650;28;19921;-61
2023/05/23 13:13:25;;;;;;;;;;;;;;;;;;5073557;28;19931;-62
2023/05/23 13:15:51;;;;;;;;;;;;;;;;;;5072720;28;20289;-61
2023/05/23 13:18:17;;;;;;;;;;;;;;;;;;5053540;28;19970;-61
2023/05/23 13:20:43;;;;;;;;;;;;;;;;;;5072937;28;19928;-62
2023/05/23 13:23:09;;;;;;;;;;;;;;;;;;5070838;28;19955;-61
2023/05/23 13:25:35;;;;;;;;;;;;;;;;;;5055022;28;19925;-61
2023/05/23 13:28:01;;;;;;;;;;;;;;;;;;5070643;28;19921;-62
2023/05/23 13:30:26;;;;;;;;;;;;;;;;;;5062300;28;19927;-63
2023/05/23 13:32:52;;;;;;;;;;;;;;;;;;5060173;28;19924;-61
2023/05/23 13:35:18;;;;;;;;;;;;;;;;;;5064149;28;19935;-61
2023/05/23 13:37:44;;;;;;;;;;;;;;;;;;5069310;28;20350;-61
2023/05/23 13:40:10;;;;;;;;;;;;;;;;;;5063207;28;20049;-61
2023/05/23 13:42:36;;;;;;;;;;;;;;;;;;5073237;28;20481;-62
2023/05/23 13:45:03;;;;;;;;;;;;;;;;;;5035104;28;19931;-62
2023/05/23 13:47:29;;;;;;;;;;;;;;;;;;5070663;28;19924;-62
2023/05/23 13:49:55;;;;;;;;;;;;;;;;;;5070993;28;19974;-62
2023/05/23 13:52:21;;;;;;;;;;;;;;;;;;5067673;28;20845;-62
2023/05/23 13:54:47;;;;;;;;;;;;;;;;;;5063920;28;19956;-62
2023/05/23 13:57:13;;;;;;;;;;;;;;;;;;5034806;28;19935;-63
2023/05/23 13:59:39;;;;;;;;;;;;;;;;;;5070409;28;20273;-64
2023/05/23 14:02:05;;;;;;;;;;;;;;;;;;5071169;28;19948;-65
2023/05/23 14:04:31;;;;;;;;;;;;;;;;;;5066479;28;19921;-64
2023/05/23 14:06:56;;;;;;;;;;;;;;;;;;5060008;28;20353;-64
2023/05/23 14:09:22;;;;;;;;;;;;;;;;;;5064720;28;19921;-64
2023/05/23 14:11:50;;;;;;;;;;;;;;;;;;5060991;28;19951;-64
2023/05/23 14:14:17;;;;;;;;;;;;;;;;;;5066044;28;19921;-63
2023/05/23 14:16:43;;;;;;;;;;;;;;;;;;5046968;28;19928;-64
2023/05/23 14:19:09;;;;;;;;;;;;;;;;;;5052640;28;20002;-64
2023/05/23 14:21:35;;;;;;;;;;;;;;;;;;5068063;28;19928;-64
2023/05/23 14:24:01;;;;;;;;;;;;;;;;;;5058936;28;19924;-64
2023/05/23 14:26:27;;;;;;;;;;;;;;;;;;5064629;28;19924;-64
2023/05/23 14:28:53;;;;;;;;;;;;;;;;;;5070937;28;19978;-64
2023/05/23 14:31:20;;;;;;;;;;;;;;;;;;5031233;28;19924;-63
2023/05/23 14:33:46;;;;;;;;;;;;;;;;;;5060526;28;19943;-63
2023/05/23 14:36:12;;;;;;;;;;;;;;;;;;5053717;28;19924;-63
2023/05/23 14:38:38;;;;;;;;;;;;;;;;;;5046935;28;19925;-65
2023/05/23 14:41:04;;;;;;;;;;;;;;;;;;5070124;28;20426;-64
2023/05/23 14:43:30;;;;;;;;;;;;;;;;;;5068955;28;19921;-64
2023/05/23 14:45:56;;;;;;;;;;;;;;;;;;5071273;28;19931;-64
2023/05/23 14:48:22;;;;;;;;;;;;;;;;;;5070263;28;20614;-64
2023/05/23 14:50:48;;;;;;;;;;;;;;;;;;5048492;28;19931;-64
2023/05/23 14:53:14;;;;;;;;;;;;;;;;;;5061250;28;19933;-63
2023/05/23 14:55:39;;;;;;;;;;;;;;;;;;5068452;28;20003;-63
2023/05/23 14:58:05;;;;;;;;;;;;;;;;;;5065682;28;20074;-63
2023/05/23 15:00:32;;;;;;;;;;;;;;;;;;5066230;28;19929;-61
2023/05/23 15:02:58;;;;;;;;;;;;;;;;;;5070162;28;20022;-61
2023/05/23 15:05:24;;;;;;;;;;;;;;;;;;5069417;28;19999;-61
2023/05/23 15:07:50;;;;;;;;;;;;;;;;;;5068130;28;19931;-61
2023/05/23 15:10:16;;;;;;;;;;;;;;;;;;5067438;28;19920;-61
2023/05/23 15:12:42;;;;;;;;;;;;;;;;;;5066121;28;19925;-61
2023/05/23 15:15:08;;;;;;;;;;;;;;;;;;5070801;28;20291;-59
2023/05/23 15:17:33;;;;;;;;;;;;;;;;;;5065099;28;19928;-60
2023/05/23 15:19:59;;;;;;;;;;;;;;;;;;5070283;28;19931;-60
2023/05/23 15:22:25;;;;;;;;;;;;;;;;;;5071343;28;19920;-60
2023/05/23 15:24:51;;;;;;;;;;;;;;;;;;5068730;28;20654;-60
2023/05/23 15:27:17;;;;;;;;;;;;;;;;;;5064997;28;19925;-60
2023/05/23 15:29:43;;;;;;;;;;;;;;;;;;5070916;28;20015;-60
2023/05/23 15:32:09;;;;;;;;;;;;;;;;;;5066843;28;19935;-60
2023/05/23 15:34:35;;;;;;;;;;;;;;;;;;5068308;28;19928;-60
2023/05/23 15:37:01;;;;;;;;;;;;;;;;;;5050383;28;19928;-60
2023/05/23 15:39:27;;;;;;;;;;;;;;;;;;5067719;28;19924;-60
2023/05/23 15:41:53;;;;;;;;;;;;;;;;;;5067060;28;19924;-60
2023/05/23 15:44:20;;;;;;;;;;;;;;;;;;5058542;28;19936;-60
2023/05/23 15:46:46;;;;;;;;;;;;;;;;;;5069015;28;19927;-60
2023/05/23 15:49:12;;;;;;;;;;;;;;;;;;5069421;28;20296;-60
2023/05/23 15:51:38;;;;;;;;;;;;;;;;;;5066214;28;19920;-61
2023/05/23 15:54:04;;;;;;;;;;;;;;;;;;5044947;28;19974;-61
2023/05/23 15:56:30;;;;;;;;;;;;;;;;;;5063400;28;20374;-61
2023/05/23 15:58:56;;;;;;;;;;;;;;;;;;5062660;28;20920;-60
2023/05/23 16:01:22;;;;;;;;;;;;;;;;;;5074874;28;19924;-60
2023/05/23 16:03:48;;;;;;;;;;;;;;;;;;5062481;28;20274;-60
2023/05/23 16:06:13;;;;;;;;;;;;;;;;;;5073643;28;19924;-61
2023/05/23 16:08:39;;;;;;;;;;;;;;;;;;5056880;28;20377;-61
2023/05/23 16:11:05;;;;;;;;;;;;;;;;;;5064435;28;19920;-61
2023/05/23 16:13:31;;;;;;;;;;;;;;;;;;5054603;28;19955;-61
2023/05/23 16:15:57;;;;;;;;;;;;;;;;;;5059465;28;20007;-65
2023/05/23 16:18:23;;;;;;;;;;;;;;;;;;5069587;28;19928;-65
2023/05/23 16:20:49;;;;;;;;;;;;;;;;;;5061811;28;20469;-64
2023/05/23 16:23:15;;;;;;;;;;;;;;;;;;5064294;28;20610;-65
2023/05/23 16:25:41;;;;;;;;;;;;;;;;;;5038275;28;19928;-64
2023/05/23 16:28:07;;;;;;;;;;;;;;;;;;5060073;28;19990;-65
2023/05/23 16:30:33;;;;;;;;;;;;;;;;;;5047546;28;19925;-65
2023/05/23 16:32:59;;;;;;;;;;;;;;;;;;5066911;28;19928;-67
2023/05/23 16:35:25;;;;;;;;;;;;;;;;;;5083490;22;19928;-61
2023/05/23 16:37:51;;;;;;;;;;;;;;;;;;5072349;28;20376;-61